Time;durP1;ratioP1;P1;durP2;ratioP2;P2;SDS_P1;SDS_P2;PMS_P1;PMS_P2;Temp;Humidity;BMP_temperature;BMP_pressure;BME280_temperature;BME280_humidity;BME280_pressure;Samples;Min_cycle;Max_cycle;Signal;HPM_P1;HPM_P2
2022/10/26 00:01:09;;;;;;;12.75;5.53;;;;;;;12.75;80.14;101133.59;3614285;39;20046;-61
2022/10/26 00:03:37;;;;;;;10.13;5.80;;;;;;;12.78;80.15;101130.66;3614455;39;20167;-61
2022/10/26 00:06:13;;;;;;;9.43;5.60;;;;;;;12.77;80.26;101127.09;3611911;39;20055;-62
2022/10/26 00:08:39;;;;;;;7.10;5.55;;;;;;;12.77;79.96;101118.16;3612740;39;20115;-62
2022/10/26 00:11:06;;;;;;;13.25;6.82;;;;;;;12.74;80.29;101108.41;3613542;39;20055;-62
2022/10/26 00:13:32;;;;;;;7.65;5.63;;;;;;;12.81;79.86;101116.09;3614201;39;20058;-61
2022/10/26 00:15:58;;;;;;;10.75;5.93;;;;;;;12.81;80.27;101108.00;3613474;39;20047;-62
2022/10/26 00:18:23;;;;;;;9.18;5.57;;;;;;;12.82;80.27;101105.22;3613947;39;20382;-61
2022/10/26 00:20:50;;;;;;;10.02;5.63;;;;;;;12.82;80.16;101099.84;3613817;39;20050;-61
2022/10/26 00:23:15;;;;;;;8.38;5.50;;;;;;;12.86;80.24;101105.88;3613330;39;20050;-62
2022/10/26 00:25:41;;;;;;;7.28;5.40;;;;;;;12.84;79.90;101097.00;3613036;39;20043;-62
2022/10/26 00:28:06;;;;;;;10.57;6.20;;;;;;;12.91;79.66;101092.97;3613359;39;20043;-63
2022/10/26 00:30:32;;;;;;;6.35;5.07;;;;;;;12.93;79.86;101083.78;3612843;39;20055;-63
2022/10/26 00:32:57;;;;;;;9.27;5.70;;;;;;;12.96;79.62;101080.00;3613467;39;20047;-62
2022/10/26 00:35:23;;;;;;;8.88;5.13;;;;;;;12.96;79.61;101080.00;3613599;39;20059;-63
2022/10/26 00:37:54;;;;;;;11.60;5.18;;;;;;;13.00;79.26;101086.91;3611793;39;20051;-63
2022/10/26 00:40:21;;;;;;;8.55;4.90;;;;;;;13.01;79.03;101096.75;3613307;39;20047;-61
2022/10/26 00:42:46;;;;;;;12.25;6.10;;;;;;;13.06;79.17;101097.28;3613735;39;20043;-59
2022/10/26 00:45:25;;;;;;;10.02;5.80;;;;;;;13.08;78.81;101098.06;3610306;39;20382;-59
2022/10/26 00:48:01;;;;;;;8.20;5.75;;;;;;;13.05;78.59;101090.19;3614213;39;20043;-58
2022/10/26 00:50:35;;;;;;;9.00;5.57;;;;;;;13.12;78.68;101098.72;3604096;39;20047;-58
2022/10/26 00:53:05;;;;;;;8.88;5.65;;;;;;;13.07;78.34;101087.38;3614351;39;20055;-58
2022/10/26 00:55:47;;;;;;;10.80;6.82;;;;;;;13.17;78.58;101099.28;3611629;39;20055;-60
2022/10/26 00:58:15;;;;;;;8.27;5.00;;;;;;;13.14;78.71;101086.84;3615110;39;20086;-60
2022/10/26 01:00:42;;;;;;;12.45;5.70;;;;;;;13.17;78.50;101083.94;3613186;39;20114;-60
2022/10/26 01:03:10;;;;;;;11.13;5.05;;;;;;;13.19;78.43;101075.72;3612896;39;20055;-60
2022/10/26 01:05:41;;;;;;;7.75;5.32;;;;;;;13.20;78.47;101072.94;3613115;39;20046;-60
2022/10/26 01:08:08;;;;;;;10.38;5.22;;;;;;;13.21;78.65;101074.66;3612526;39;20386;-58
2022/10/26 01:10:35;;;;;;;9.65;5.10;;;;;;;13.20;78.73;101075.63;3613559;39;20055;-59
2022/10/26 01:13:03;;;;;;;9.20;5.00;;;;;;;13.22;78.52;101079.09;3613600;39;20366;-59
2022/10/26 01:15:52;;;;;;;9.95;4.93;;;;;;;13.24;78.20;101079.00;3613329;39;20109;-58
2022/10/26 01:18:39;;;;;;;9.02;5.13;;;;;;;13.24;78.54;101073.59;3612403;39;20046;-57
2022/10/26 01:21:56;;;;;;;6.97;4.40;;;;;;;13.24;78.17;101063.69;3611159;39;20058;-58
2022/10/26 01:25:01;;;;;;;7.18;4.88;;;;;;;13.25;78.02;101059.13;3602376;39;20056;-58
2022/10/26 01:27:43;;;;;;;7.63;4.97;;;;;;;13.26;78.50;101057.28;3612463;39;20386;-58
2022/10/26 01:30:47;;;;;;;7.65;4.97;;;;;;;13.26;78.39;101055.50;3610658;39;20282;-59
2022/10/26 01:33:33;;;;;;;7.43;5.10;;;;;;;13.21;78.24;101053.06;3605472;39;20046;-58
2022/10/26 01:36:15;;;;;;;8.35;5.05;;;;;;;13.28;78.25;101053.53;3613872;39;20082;-59
2022/10/26 01:39:08;;;;;;;10.02;6.38;;;;;;;13.22;78.08;101044.00;3609363;39;20139;-58
2022/10/26 01:41:48;;;;;;;8.63;5.65;;;;;;;13.26;77.94;101043.81;3605559;39;20083;-58
2022/10/26 01:44:52;;;;;;;10.52;5.85;;;;;;;13.06;77.97;101013.63;3613222;39;20054;-59
2022/10/26 01:47:22;;;;;;;9.60;5.72;;;;;;;13.22;77.96;101035.03;3613475;39;20408;-57
2022/10/26 01:49:55;;;;;;;13.55;5.80;;;;;;;13.26;78.26;101047.41;3612647;39;20051;-57
2022/10/26 01:52:21;;;;;;;9.73;5.88;;;;;;;13.12;78.34;101015.91;3614976;39;20054;-58
2022/10/26 01:54:47;;;;;;;7.28;5.50;;;;;;;13.26;78.38;101041.09;3615263;39;20043;-58
2022/10/26 01:57:19;;;;;;;9.63;5.95;;;;;;;13.17;78.44;101029.97;3613691;39;20407;-59
2022/10/26 02:00:05;;;;;;;11.00;6.03;;;;;;;13.22;78.56;101043.13;3614902;39;20066;-58
2022/10/26 02:02:52;;;;;;;9.57;6.00;;;;;;;13.24;78.16;101044.78;3614998;39;20062;-59
2022/10/26 02:05:47;;;;;;;9.40;6.18;;;;;;;13.26;78.00;101038.41;3613142;39;20055;-59
2022/10/26 02:08:53;;;;;;;8.98;5.60;;;;;;;13.23;78.13;101024.13;3610486;39;20044;-59
2022/10/26 02:11:29;;;;;;;8.85;5.43;;;;;;;13.25;77.91;101021.34;3613360;39;20062;-58
2022/10/26 02:14:22;;;;;;;9.43;5.85;;;;;;;13.27;78.43;101023.94;3615462;39;20051;-59
2022/10/26 02:17:08;;;;;;;12.60;5.90;;;;;;;13.29;78.12;101019.28;3611702;39;20062;-59
2022/10/26 02:19:53;;;;;;;7.95;5.55;;;;;;;13.28;78.21;101021.13;3611907;39;20055;-59
2022/10/26 02:22:44;;;;;;;10.35;6.25;;;;;;;13.29;78.17;101017.47;3616624;39;20044;-59
2022/10/26 02:25:22;;;;;;;11.18;6.40;;;;;;;13.29;77.94;101016.59;3613162;39;20367;-59
2022/10/26 02:28:11;;;;;;;7.07;5.40;;;;;;;13.30;78.01;101013.81;3614817;39;20057;-59
2022/10/26 02:30:41;;;;;;;10.20;5.22;;;;;;;13.33;77.75;101012.72;3613205;39;20124;-58
2022/10/26 02:33:12;;;;;;;12.63;6.22;;;;;;;13.34;78.03;101012.59;3613055;39;20138;-58
2022/10/26 02:35:46;;;;;;;9.05;5.25;;;;;;;13.35;78.06;101011.66;3614760;39;20058;-59
2022/10/26 02:38:16;;;;;;;10.77;4.57;;;;;;;13.34;77.84;101004.50;3614292;39;20062;-59
2022/10/26 02:40:47;;;;;;;11.70;4.70;;;;;;;13.35;77.96;101000.84;3613327;39;20055;-59
2022/10/26 02:43:21;;;;;;;8.65;4.50;;;;;;;13.37;77.51;100998.03;3614746;39;20426;-59
2022/10/26 02:46:10;;;;;;;6.47;4.53;;;;;;;13.35;77.81;100998.16;3613825;39;20039;-58
2022/10/26 02:48:36;;;;;;;8.80;5.38;;;;;;;13.34;78.00;101001.81;3610788;39;20097;-58
2022/10/26 02:51:22;;;;;;;7.25;4.05;;;;;;;13.33;77.93;100993.81;3615381;39;20300;-58
2022/10/26 02:53:58;;;;;;;8.30;3.95;;;;;;;13.33;77.77;100996.53;3614620;39;20460;-59
2022/10/26 02:56:39;;;;;;;7.03;3.90;;;;;;;13.33;78.39;100999.22;3610914;39;20054;-59
2022/10/26 02:59:10;;;;;;;5.97;3.83;;;;;;;13.33;78.59;100991.13;3610623;39;20365;-58
2022/10/26 03:01:36;;;;;;;8.77;4.35;;;;;;;13.34;78.48;100995.53;3614200;39;20120;-59
2022/10/26 03:04:02;;;;;;;7.43;3.83;;;;;;;13.35;78.06;100999.97;3614178;39;20050;-59
2022/10/26 03:06:28;;;;;;;5.72;3.88;;;;;;;13.36;78.72;100997.16;3612787;39;20039;-59
2022/10/26 03:08:53;;;;;;;9.10;4.25;;;;;;;13.35;78.42;100994.56;3614155;39;20182;-59
2022/10/26 03:11:19;;;;;;;10.45;3.53;;;;;;;13.34;78.36;100993.69;3614020;39;20055;-59
2022/10/26 03:13:44;;;;;;;6.78;3.28;;;;;;;13.35;78.35;100994.56;3613543;39;20046;-59
2022/10/26 03:16:11;;;;;;;6.68;3.70;;;;;;;13.27;78.48;100981.63;3614323;39;20047;-59
2022/10/26 03:18:36;;;;;;;7.15;3.70;;;;;;;13.32;78.59;100989.38;3614117;39;20135;-59
2022/10/26 03:21:02;;;;;;;7.35;3.65;;;;;;;13.34;78.98;100990.16;3613628;39;20063;-59
2022/10/26 03:23:28;;;;;;;8.88;4.03;;;;;;;13.33;78.90;100991.13;3614420;39;20055;-59
2022/10/26 03:25:58;;;;;;;6.05;3.45;;;;;;;13.26;78.57;100976.31;3613805;39;20047;-59
2022/10/26 03:28:25;;;;;;;7.15;3.40;;;;;;;13.35;78.70;100987.34;3612116;39;20051;-59
2022/10/26 03:30:51;;;;;;;13.05;3.70;;;;;;;13.35;78.40;100986.47;3606198;39;20086;-59
2022/10/26 03:33:17;;;;;;;6.95;4.35;;;;;;;13.37;78.28;100989.94;3614528;39;20047;-59
2022/10/26 03:35:43;;;;;;;5.63;3.25;;;;;;;13.38;78.08;100984.44;3613722;39;20047;-59
2022/10/26 03:38:09;;;;;;;8.43;3.05;;;;;;;13.39;78.06;100978.06;3614173;39;20115;-59
2022/10/26 03:40:35;;;;;;;9.05;3.72;;;;;;;13.39;77.90;100985.28;3612927;39;20080;-59
2022/10/26 03:43:02;;;;;;;10.40;3.40;;;;;;;13.39;77.75;100980.75;3614227;39;20047;-59
2022/10/26 03:45:28;;;;;;;12.38;3.13;;;;;;;13.42;77.79;100979.69;3614628;39;20057;-59
2022/10/26 03:47:53;;;;;;;9.35;3.15;;;;;;;13.43;77.63;100984.94;3612836;39;20403;-59
2022/10/26 03:50:21;;;;;;;6.13;2.80;;;;;;;13.43;77.60;100981.41;3614382;39;20047;-59
2022/10/26 03:52:49;;;;;;;6.30;2.90;;;;;;;13.36;77.99;100978.28;3613767;39;20051;-59
2022/10/26 03:55:15;;;;;;;6.30;2.80;;;;;;;13.43;77.72;100986.78;3614049;39;20369;-59
2022/10/26 03:57:44;;;;;;;7.28;3.10;;;;;;;13.42;77.50;100980.53;3612739;39;20058;-58
2022/10/26 04:00:16;;;;;;;5.68;3.13;;;;;;;13.42;77.61;100980.53;3616564;39;20073;-59
2022/10/26 04:02:46;;;;;;;5.72;2.70;;;;;;;13.42;77.95;100985.94;3613108;39;20041;-59
2022/10/26 04:05:13;;;;;;;5.60;2.83;;;;;;;13.43;77.84;100984.09;3613424;39;20043;-59
2022/10/26 04:07:38;;;;;;;7.55;3.42;;;;;;;13.43;77.72;100976.84;3613211;39;20400;-59
2022/10/26 04:10:05;;;;;;;8.25;2.80;;;;;;;13.42;77.69;100976.97;3613383;39;20059;-59
2022/10/26 04:12:31;;;;;;;6.85;2.92;;;;;;;13.43;77.92;100979.56;3612606;39;20062;-59
2022/10/26 04:14:57;;;;;;;7.43;2.97;;;;;;;13.46;77.75;100983.88;3613680;39;20059;-58
2022/10/26 04:17:24;;;;;;;4.85;3.05;;;;;;;13.46;78.01;100982.03;3612952;39;20051;-59
2022/10/26 04:19:50;;;;;;;7.70;3.03;;;;;;;13.50;77.95;100981.81;3613974;39;21410;-58
2022/10/26 04:22:15;;;;;;;7.78;3.00;;;;;;;13.52;77.97;100983.44;3613107;39;20377;-59
2022/10/26 04:24:41;;;;;;;8.85;3.17;;;;;;;13.53;77.95;100976.19;3613441;39;20058;-60
2022/10/26 04:27:06;;;;;;;5.97;2.92;;;;;;;13.56;77.88;100976.84;3613390;39;20114;-59
2022/10/26 04:29:32;;;;;;;9.85;3.45;;;;;;;13.59;77.40;100979.31;3611996;39;20067;-59
2022/10/26 04:31:57;;;;;;;4.85;3.45;;;;;;;13.60;77.61;100967.53;3613636;39;20057;-59
2022/10/26 04:34:23;;;;;;;12.32;3.65;;;;;;;13.60;77.74;100972.94;3612344;39;20373;-58
2022/10/26 04:36:49;;;;;;;6.35;2.85;;;;;;;13.62;77.31;100960.19;3609779;39;21346;-59
2022/10/26 04:39:14;;;;;;;10.52;2.90;;;;;;;13.67;77.29;100968.84;3613010;39;20114;-59
2022/10/26 04:41:40;;;;;;;5.63;2.88;;;;;;;13.70;77.30;100968.63;3613092;39;20043;-59
2022/10/26 04:44:05;;;;;;;6.75;3.10;;;;;;;13.70;77.45;100968.63;3617103;39;20272;-59
2022/10/26 04:46:31;;;;;;;5.47;2.95;;;;;;;13.73;77.40;100966.63;3612358;39;20058;-59
2022/10/26 04:48:56;;;;;;;8.02;3.28;;;;;;;13.71;77.65;100964.06;3610127;39;20053;-59
2022/10/26 04:51:22;;;;;;;10.77;3.80;;;;;;;13.76;77.16;100971.81;3613812;39;20056;-58
2022/10/26 04:53:47;;;;;;;7.40;3.20;;;;;;;13.71;77.56;100953.25;3612789;39;20071;-59
2022/10/26 04:56:13;;;;;;;6.63;2.80;;;;;;;13.78;77.37;100969.88;3612817;39;20416;-59
2022/10/26 04:58:38;;;;;;;9.75;3.53;;;;;;;13.80;77.58;100967.94;3612699;39;20089;-58
2022/10/26 05:01:04;;;;;;;4.43;2.67;;;;;;;13.82;77.27;100974.06;3613127;39;20307;-59
2022/10/26 05:03:30;;;;;;;9.85;3.63;;;;;;;13.85;77.68;100971.16;3613345;39;20074;-59
2022/10/26 05:05:58;;;;;;;9.25;3.35;;;;;;;13.83;77.31;100970.41;3612702;39;20046;-59
2022/10/26 05:08:24;;;;;;;8.27;3.10;;;;;;;13.87;77.61;100974.63;3611095;39;20165;-59
2022/10/26 05:10:49;;;;;;;6.03;3.67;;;;;;;13.87;77.80;100969.22;3614925;39;20071;-57
2022/10/26 05:13:15;;;;;;;5.03;2.92;;;;;;;13.88;77.72;100977.19;3613388;39;20062;-59
2022/10/26 05:15:41;;;;;;;7.75;3.35;;;;;;;13.91;77.26;100982.38;3611523;39;20074;-59
2022/10/26 05:18:08;;;;;;;6.97;3.40;;;;;;;13.90;77.84;100980.66;3612764;39;20051;-59
2022/10/26 05:20:35;;;;;;;8.65;3.42;;;;;;;13.89;77.32;100967.25;3611681;39;20051;-59
2022/10/26 05:23:05;;;;;;;5.32;3.03;;;;;;;13.46;77.64;100900.16;3609794;39;20046;-59
2022/10/26 05:25:35;;;;;;;7.50;3.20;;;;;;;13.94;77.65;100979.44;3615023;39;20249;-58
2022/10/26 05:28:06;;;;;;;10.23;3.65;;;;;;;13.97;77.67;100978.38;3613334;39;20046;-59
2022/10/26 05:30:33;;;;;;;6.70;2.95;;;;;;;13.96;77.62;100979.34;3611969;39;20402;-59
2022/10/26 05:33:02;;;;;;;9.30;3.83;;;;;;;13.99;77.62;100984.53;3611541;39;20051;-59
2022/10/26 05:35:29;;;;;;;9.77;3.10;;;;;;;13.94;77.85;100975.88;3613694;39;20042;-59
2022/10/26 05:37:55;;;;;;;5.40;2.92;;;;;;;13.96;77.51;100986.59;3612989;39;20047;-59
2022/10/26 05:40:21;;;;;;;6.28;2.92;;;;;;;13.96;77.77;100979.34;3614344;39;20054;-59
2022/10/26 05:42:47;;;;;;;6.32;3.00;;;;;;;13.98;78.04;100982.78;3612914;39;20049;-59
2022/10/26 05:45:13;;;;;;;8.13;3.00;;;;;;;14.01;77.64;100985.25;3613518;39;20047;-59
2022/10/26 05:47:40;;;;;;;8.18;3.50;;;;;;;13.89;77.64;100967.25;3612351;39;20058;-59
2022/10/26 05:50:08;;;;;;;6.25;3.30;;;;;;;14.02;77.37;100986.13;3609193;39;20061;-59
2022/10/26 05:52:42;;;;;;;6.43;2.85;;;;;;;14.05;77.58;100989.50;3614128;39;20122;-59
2022/10/26 05:55:11;;;;;;;11.55;3.10;;;;;;;14.08;77.20;100994.66;3609606;39;20085;-59
2022/10/26 05:57:37;;;;;;;6.40;3.00;;;;;;;14.04;77.58;100987.75;3612580;39;20078;-59
2022/10/26 06:00:10;;;;;;;7.80;2.92;;;;;;;14.10;77.27;100991.84;3613186;39;20057;-58
2022/10/26 06:03:12;;;;;;;10.75;2.83;;;;;;;14.12;76.53;101001.56;3612092;39;20097;-59
2022/10/26 06:05:55;;;;;;;6.82;2.55;;;;;;;14.16;76.47;101002.19;3611921;39;20296;-59
2022/10/26 06:08:25;;;;;;;5.10;2.78;;;;;;;14.16;76.33;100994.09;3613296;39;20054;-59
2022/10/26 06:10:53;;;;;;;10.40;3.10;;;;;;;14.23;76.72;101013.41;3612863;39;20139;-59
2022/10/26 06:13:20;;;;;;;6.72;2.70;;;;;;;14.24;76.24;101013.31;3613152;39;20053;-59
2022/10/26 06:16:24;;;;;;;5.90;2.47;;;;;;;14.23;75.81;101018.81;3612402;39;20053;-58
2022/10/26 06:19:12;;;;;;;8.50;3.08;;;;;;;14.22;76.55;101017.97;3612956;39;20410;-59
2022/10/26 06:22:07;;;;;;;5.13;2.85;;;;;;;14.17;76.08;101004.78;3613487;39;20071;-59
2022/10/26 06:25:06;;;;;;;9.13;3.10;;;;;;;14.22;76.00;101011.69;3610924;39;20127;-58
2022/10/26 06:27:56;;;;;;;6.40;2.80;;;;;;;14.20;76.08;101008.22;3611671;39;20386;-58
2022/10/26 06:30:22;;;;;;;7.47;2.97;;;;;;;14.18;76.07;101016.47;3610748;39;20049;-59
2022/10/26 06:32:54;;;;;;;7.65;2.78;;;;;;;14.16;76.10;101004.91;3614658;39;20389;-59
2022/10/26 06:35:44;;;;;;;5.40;2.72;;;;;;;14.15;76.66;101012.16;3615601;39;20448;-59
2022/10/26 06:38:18;;;;;;;5.72;3.20;;;;;;;14.15;76.26;101005.88;3611449;39;20051;-59
2022/10/26 06:40:50;;;;;;;8.32;3.10;;;;;;;14.15;76.86;101001.34;3613878;39;20069;-58
2022/10/26 06:43:35;;;;;;;8.80;3.17;;;;;;;14.12;76.54;100998.84;3614798;39;20361;-58
2022/10/26 06:46:27;;;;;;;7.53;3.20;;;;;;;14.07;76.71;100984.81;3606174;39;20051;-59
2022/10/26 06:49:35;;;;;;;6.28;3.10;;;;;;;14.12;76.78;100989.88;3610777;39;20131;-59
2022/10/26 06:52:17;;;;;;;7.63;3.22;;;;;;;14.16;77.30;101000.34;3610593;39;20370;-58
2022/10/26 06:54:53;;;;;;;8.82;3.22;;;;;;;14.15;77.25;100995.06;3613568;39;20053;-58
2022/10/26 06:57:28;;;;;;;7.70;3.15;;;;;;;14.18;77.11;101000.25;3612528;39;20084;-58
2022/10/26 07:00:05;;;;;;;7.13;3.30;;;;;;;14.19;77.55;101003.81;3614382;39;20094;-59
2022/10/26 07:02:31;;;;;;;8.02;3.40;;;;;;;14.19;77.01;101001.97;3614107;39;20056;-59
2022/10/26 07:04:56;;;;;;;5.07;3.45;;;;;;;14.19;77.63;101001.97;3607091;39;20131;-58
2022/10/26 07:07:27;;;;;;;6.20;3.55;;;;;;;14.15;77.57;100998.63;3614443;39;20057;-59
2022/10/26 07:09:53;;;;;;;7.68;3.40;;;;;;;14.13;77.87;101014.09;3615032;39;20063;-59
2022/10/26 07:12:19;;;;;;;9.20;3.47;;;;;;;14.12;77.96;101025.91;3614270;39;20159;-59
2022/10/26 07:14:44;;;;;;;6.18;3.42;;;;;;;14.10;78.09;101030.53;3613618;39;20055;-59
2022/10/26 07:17:11;;;;;;;12.88;3.78;;;;;;;14.07;78.35;101019.94;3613977;39;20047;-58
2022/10/26 07:19:36;;;;;;;7.38;3.83;;;;;;;13.96;78.00;101010.91;3613188;39;20056;-59
2022/10/26 07:22:02;;;;;;;9.88;4.38;;;;;;;14.07;78.30;101025.34;3614412;39;20051;-58
2022/10/26 07:24:29;;;;;;;9.63;3.70;;;;;;;14.13;78.29;101029.47;3614207;39;20055;-58
2022/10/26 07:26:57;;;;;;;10.75;4.18;;;;;;;14.19;78.30;101033.56;3614430;39;20382;-59
2022/10/26 07:29:25;;;;;;;9.23;3.65;;;;;;;14.34;77.70;101043.25;3613752;39;20456;-59
2022/10/26 07:31:52;;;;;;;7.28;3.25;;;;;;;14.50;77.37;101035.72;3613995;39;20139;-59
2022/10/26 07:34:18;;;;;;;6.20;2.83;;;;;;;14.71;77.07;101040.50;3612958;39;20047;-59
2022/10/26 07:36:44;;;;;;;6.53;3.33;;;;;;;14.87;75.73;101035.63;3613260;39;20374;-59
2022/10/26 07:39:09;;;;;;;6.65;2.75;;;;;;;15.13;75.56;101052.59;3614105;39;20050;-58
2022/10/26 07:41:35;;;;;;;4.90;2.70;;;;;;;15.38;74.89;101051.56;3612624;39;20525;-59
2022/10/26 07:44:01;;;;;;;4.78;2.90;;;;;;;15.57;73.56;101056.38;3614615;39;20054;-59
2022/10/26 07:46:28;;;;;;;4.60;2.50;;;;;;;15.75;72.48;101067.63;3616405;39;20115;-58
2022/10/26 07:48:53;;;;;;;7.05;2.40;;;;;;;15.93;71.42;101077.00;3613692;39;20087;-59
2022/10/26 07:51:19;;;;;;;4.45;2.30;;;;;;;16.12;71.01;101078.25;3614030;39;20122;-59
2022/10/26 07:53:45;;;;;;;12.20;2.20;;;;;;;16.16;70.97;101080.56;3613106;39;20405;-59
2022/10/26 07:56:12;;;;;;;3.80;2.35;;;;;;;16.19;71.15;101064.03;3614407;39;20407;-59
2022/10/26 07:58:38;;;;;;;6.20;2.25;;;;;;;16.30;70.54;101055.03;3613208;39;20453;-59
2022/10/26 08:01:11;;;;;;;4.63;2.30;;;;;;;16.60;70.09;101072.47;3614078;39;20039;-59
2022/10/26 08:03:37;;;;;;;7.38;2.42;;;;;;;16.80;69.89;101090.69;3612360;39;20051;-59
2022/10/26 08:06:04;;;;;;;4.35;2.10;;;;;;;17.02;68.20;101091.59;3613771;39;20099;-59
2022/10/26 08:08:31;;;;;;;4.78;2.40;;;;;;;17.18;68.37;101083.88;3614075;39;20050;-59
2022/10/26 08:10:58;;;;;;;5.75;2.33;;;;;;;17.39;67.43;101103.75;3613980;39;20051;-59
2022/10/26 08:13:24;;;;;;;5.45;2.13;;;;;;;17.63;66.50;101099.91;3613872;39;20050;-59
2022/10/26 08:15:54;;;;;;;4.63;2.40;;;;;;;17.79;66.62;101094.91;3613436;39;20082;-59
2022/10/26 08:18:20;;;;;;;5.50;1.95;;;;;;;17.98;66.33;101090.53;3613710;39;20115;-59
2022/10/26 08:20:46;;;;;;;4.60;2.00;;;;;;;18.00;65.02;101091.25;3613362;39;20067;-58
2022/10/26 08:23:11;;;;;;;3.92;2.10;;;;;;;17.90;65.99;101102.09;3614242;39;20114;-59
2022/10/26 08:25:37;;;;;;;6.47;2.38;;;;;;;17.98;66.45;101093.25;3613090;39;20321;-59
2022/10/26 08:28:03;;;;;;;5.47;1.98;;;;;;;18.09;66.70;101104.91;3613908;39;20050;-59
2022/10/26 08:30:31;;;;;;;5.32;2.00;;;;;;;18.30;65.93;101104.84;3612529;39;20062;-59
2022/10/26 08:33:03;;;;;;;5.30;2.22;;;;;;;18.53;65.55;101108.22;3612118;39;20057;-59
2022/10/26 08:35:30;;;;;;;6.45;2.33;;;;;;;18.72;64.87;101109.25;3613788;39;20084;-59
2022/10/26 08:37:55;;;;;;;6.70;2.30;;;;;;;18.92;63.87;101110.16;3614351;39;20047;-59
2022/10/26 08:40:33;;;;;;;3.97;2.10;;;;;;;19.12;62.81;101114.59;3613314;39;20119;-59
2022/10/26 08:43:13;;;;;;;3.97;1.75;;;;;;;19.37;63.36;101109.59;3614791;39;20299;-59
2022/10/26 08:45:49;;;;;;;2.22;1.88;;;;;;;19.47;62.88;101124.94;3611492;39;20043;-59
2022/10/26 08:48:23;;;;;;;4.13;1.98;;;;;;;19.58;62.73;101121.19;3613745;39;20094;-59
2022/10/26 08:50:55;;;;;;;5.15;2.00;;;;;;;19.68;61.68;101113.88;3609638;39;20061;-59
2022/10/26 08:53:32;;;;;;;2.83;1.85;;;;;;;19.80;61.34;101114.56;3613535;39;20458;-59
2022/10/26 08:56:25;;;;;;;4.03;2.03;;;;;;;19.88;60.96;101102.91;3615984;39;20369;-59
2022/10/26 08:59:25;;;;;;;4.88;1.83;;;;;;;20.08;60.80;101081.88;3613565;39;20100;-59
2022/10/26 09:01:52;;;;;;;4.80;1.73;;;;;;;20.27;60.58;101087.25;3613058;39;20409;-58
2022/10/26 09:04:27;;;;;;;4.22;1.92;;;;;;;20.42;59.43;101095.75;3613519;39;20047;-59
2022/10/26 09:07:22;;;;;;;5.90;1.92;;;;;;;20.45;60.48;101106.38;3613284;39;20079;-59
2022/10/26 09:10:05;;;;;;;9.38;2.00;;;;;;;20.60;59.64;101112.22;3613089;39;20070;-59
2022/10/26 09:12:50;;;;;;;8.65;2.20;;;;;;;20.77;59.13;101116.00;3613302;39;20051;-59
2022/10/26 09:15:39;;;;;;;3.80;1.90;;;;;;;20.82;58.59;101124.59;3610884;39;20058;-59
2022/10/26 09:18:41;;;;;;;5.63;2.03;;;;;;;20.94;58.75;101145.25;3610316;39;20119;-59
2022/10/26 09:21:42;;;;;;;3.17;1.92;;;;;;;21.10;58.52;101137.19;3611236;39;20054;-59
2022/10/26 09:24:22;;;;;;;6.68;1.98;;;;;;;21.36;58.22;101158.31;3612164;39;20050;-59
2022/10/26 09:27:10;;;;;;;6.68;2.13;;;;;;;21.43;57.06;101161.28;3612910;39;20063;-58
2022/10/26 09:29:42;;;;;;;7.82;2.00;;;;;;;21.45;57.29;101159.25;3612549;39;20096;-59
2022/10/26 09:32:20;;;;;;;4.13;1.75;;;;;;;21.40;57.13;101158.88;3610377;39;20483;-59
2022/10/26 09:34:53;;;;;;;13.52;2.35;;;;;;;21.39;57.13;101171.69;3613125;39;20078;-59
2022/10/26 09:37:34;;;;;;;8.85;2.30;;;;;;;21.44;56.77;101185.75;3614299;39;20344;-59
2022/10/26 09:40:18;;;;;;;5.70;2.15;;;;;;;21.45;57.06;101192.94;3613315;39;20359;-59
2022/10/26 09:43:16;;;;;;;3.65;1.80;;;;;;;21.41;56.83;101191.53;3612993;39;20062;-59
2022/10/26 09:45:50;;;;;;;6.82;2.30;;;;;;;21.17;57.03;101172.13;3611029;39;20042;-59
2022/10/26 09:48:45;;;;;;;9.65;2.55;;;;;;;21.04;57.99;101189.75;3612716;39;20062;-58
2022/10/26 09:51:11;;;;;;;6.75;2.15;;;;;;;20.89;58.40;101185.81;3613455;39;20179;-58
2022/10/26 09:53:36;;;;;;;3.80;2.05;;;;;;;20.68;59.41;101194.31;3605502;39;20062;-59
2022/10/26 09:56:10;;;;;;;9.02;2.40;;;;;;;20.63;60.21;101186.53;3613137;39;20062;-59
2022/10/26 09:58:58;;;;;;;10.13;2.03;;;;;;;20.75;60.45;101197.28;3612780;39;20424;-60
2022/10/26 10:01:27;;;;;;;6.97;2.35;;;;;;;20.88;60.09;101200.50;3611650;39;20051;-59
2022/10/26 10:04:12;;;;;;;3.92;2.10;;;;;;;20.94;59.52;101205.38;3612644;39;20043;-59
2022/10/26 10:06:42;;;;;;;6.38;2.50;;;;;;;21.02;59.34;101208.16;3613589;39;20408;-59
2022/10/26 10:09:14;;;;;;;4.78;2.22;;;;;;;21.21;59.27;101200.88;3611619;39;20108;-57
2022/10/26 10:11:42;;;;;;;5.95;2.25;;;;;;;21.43;58.32;101207.78;3613677;39;20112;-59
2022/10/26 10:14:16;;;;;;;5.90;1.98;;;;;;;21.68;57.93;101217.06;3614894;39;20047;-58
2022/10/26 10:16:53;;;;;;;8.23;2.10;;;;;;;21.83;57.57;101220.13;3614116;39;20285;-59
2022/10/26 10:19:27;;;;;;;3.72;1.98;;;;;;;21.90;56.68;101194.69;3615042;39;20089;-59
2022/10/26 10:21:58;;;;;;;5.00;2.55;;;;;;;22.26;56.28;101232.94;3614685;39;20333;-59
2022/10/26 10:24:35;;;;;;;7.85;2.58;;;;;;;22.34;56.49;101241.22;3614812;39;20051;-59
2022/10/26 10:27:04;;;;;;;3.28;1.90;;;;;;;22.40;56.08;101253.41;3614741;39;20412;-57
2022/10/26 10:29:39;;;;;;;6.53;1.95;;;;;;;22.28;55.98;101210.88;3613649;39;20094;-57
2022/10/26 10:32:14;;;;;;;3.50;2.17;;;;;;;22.44;55.12;101247.44;3611440;39;20083;-59
2022/10/26 10:34:40;;;;;;;4.30;2.22;;;;;;;22.61;56.09;101255.75;3614714;39;20100;-59
2022/10/26 10:37:20;;;;;;;5.03;2.13;;;;;;;22.78;54.73;101256.72;3614238;39;20062;-59
2022/10/26 10:39:47;;;;;;;4.03;2.40;;;;;;;22.97;55.02;101261.97;3614089;39;20089;-59
2022/10/26 10:42:26;;;;;;;6.35;2.30;;;;;;;23.09;54.27;101268.88;3614409;39;20300;-59
2022/10/26 10:44:56;;;;;;;3.95;1.88;;;;;;;23.09;53.65;101265.25;3606601;39;20043;-59
2022/10/26 10:47:33;;;;;;;7.13;2.40;;;;;;;22.98;54.48;101287.50;3614261;39;20309;-58
2022/10/26 10:50:19;;;;;;;5.30;2.30;;;;;;;22.94;55.08;101282.34;3614599;39;20274;-56
2022/10/26 10:52:46;;;;;;;6.45;2.65;;;;;;;23.04;54.57;101278.63;3614645;39;20094;-57
2022/10/26 10:55:19;;;;;;;7.15;2.17;;;;;;;23.03;54.05;101274.16;3613847;39;20485;-57
2022/10/26 10:57:45;;;;;;;5.68;2.20;;;;;;;23.05;54.83;101286.66;3614505;39;20555;-58
2022/10/26 11:00:11;;;;;;;5.97;2.38;;;;;;;22.98;54.58;101288.34;3613854;39;20131;-59
2022/10/26 11:03:16;;;;;;;7.28;2.28;;;;;;;22.83;54.92;101285.34;3613638;39;20043;-57
2022/10/26 11:06:08;;;;;;;6.05;2.28;;;;;;;22.66;55.62;101289.88;3614414;39;20417;-59
2022/10/26 11:08:42;;;;;;;4.32;1.95;;;;;;;22.68;56.12;101278.78;3610721;39;20127;-57
2022/10/26 11:12:01;;;;;;;5.78;1.83;;;;;;;22.89;55.95;101292.91;3611431;39;20051;-57
2022/10/26 11:15:06;;;;;;;5.63;1.80;;;;;;;22.91;54.76;101296.34;3612193;39;20347;-57
2022/10/26 11:18:29;;;;;;;4.43;1.80;;;;;;;22.88;55.19;101302.16;3612974;39;20055;-57
2022/10/26 11:21:21;;;;;;;3.92;1.63;;;;;;;23.06;54.83;101309.50;3614030;39;20418;-57
2022/10/26 11:24:09;;;;;;;6.20;2.15;;;;;;;23.16;54.33;101322.03;3614145;39;20324;-59
2022/10/26 11:26:56;;;;;;;5.40;1.40;;;;;;;23.38;54.27;101325.22;3614196;39;20055;-59
2022/10/26 11:29:53;;;;;;;3.70;1.55;;;;;;;23.67;53.09;101318.44;3612285;39;20057;-58
2022/10/26 11:32:49;;;;;;;2.80;1.75;;;;;;;23.41;53.68;101319.41;3611256;39;20070;-58
2022/10/26 11:35:20;;;;;;;5.35;1.90;;;;;;;23.57;53.44;101324.91;3601873;39;20090;-58
2022/10/26 11:38:32;;;;;;;4.13;1.67;;;;;;;23.71;53.23;101319.84;3613647;39;20059;-58
2022/10/26 11:41:17;;;;;;;1.85;1.52;;;;;;;23.61;53.71;101282.38;3613584;39;20081;-57
2022/10/26 11:43:47;;;;;;;7.93;1.95;;;;;;;24.11;53.02;101312.69;3614316;39;20120;-57
2022/10/26 11:46:41;;;;;;;2.88;1.60;;;;;;;24.36;52.42;101310.75;3616483;39;20377;-57
2022/10/26 11:49:12;;;;;;;;;;;;;;;24.52;52.55;101324.53;3611516;39;20051;-58
2022/10/26 11:51:54;;;;;;;9.40;2.10;;;;;;;24.45;51.07;101320.75;3614301;39;20004;-57
2022/10/26 11:54:39;;;;;;;6.47;1.60;;;;;;;24.11;52.62;101329.16;3614543;39;20081;-58
2022/10/26 11:57:05;;;;;;;5.57;1.90;;;;;;;24.18;52.07;101333.78;3610992;39;20290;-58